sensor_id;sensor_type;location;lat;lon;timestamp;temperature;humidity
30134;DHT22;16946;49.984;10.672;2022-12-15T00:00:09;-6.00;99.90
30134;DHT22;16946;49.984;10.672;2022-12-15T00:01:00;-6.00;99.90
30134;DHT22;16946;49.984;10.672;2022-12-15T00:01:49;-5.80;99.90
30134;DHT22;16946;49.984;10.672;2022-12-15T00:02:38;-5.60;99.90
30134;DHT22;16946;49.984;10.672;2022-12-15T00:03:27;-5.40;99.90
30134;DHT22;16946;49.984;10.672;2022-12-15T00:04:17;-5.30;99.90
30134;DHT22;16946;49.984;10.672;2022-12-15T00:05:06;-5.20;99.90
30134;DHT22;16946;49.984;10.672;2022-12-15T00:05:55;-5.20;99.90
30134;DHT22;16946;49.984;10.672;2022-12-15T00:06:44;-5.20;99.90
30134;DHT22;16946;49.984;10.672;2022-12-15T00:07:33;-5.20;99.90
30134;DHT22;16946;49.984;10.672;2022-12-15T00:08:23;-5.30;99.90
30134;DHT22;16946;49.984;10.672;2022-12-15T00:09:12;-5.30;99.90
30134;DHT22;16946;49.984;10.672;2022-12-15T00:10:02;-5.40;99.90
30134;DHT22;16946;49.984;10.672;2022-12-15T00:10:51;-5.50;99.90
30134;DHT22;16946;49.984;10.672;2022-12-15T00:11:40;-5.50;99.90
30134;DHT22;16946;49.984;10.672;2022-12-15T00:12:30;-5.60;99.90
30134;DHT22;16946;49.984;10.672;2022-12-15T00:13:19;-5.60;99.90
30134;DHT22;16946;49.984;10.672;2022-12-15T00:14:08;-5.60;99.90
30134;DHT22;16946;49.984;10.672;2022-12-15T00:14:58;-5.60;99.90
30134;DHT22;16946;49.984;10.672;2022-12-15T00:15:47;-5.60;99.90
30134;DHT22;16946;49.984;10.672;2022-12-15T00:16:36;-5.60;99.90
30134;DHT22;16946;49.984;10.672;2022-12-15T00:17:25;-5.60;99.90
30134;DHT22;16946;49.984;10.672;2022-12-15T00:18:15;-5.50;99.90
30134;DHT22;16946;49.984;10.672;2022-12-15T00:19:04;-5.50;99.90
30134;DHT22;16946;49.984;10.672;2022-12-15T00:19:53;-5.50;99.90
30134;DHT22;16946;49.984;10.672;2022-12-15T00:20:43;-5.40;99.90
30134;DHT22;16946;49.984;10.672;2022-12-15T00:21:32;-5.40;99.90
30134;DHT22;16946;49.984;10.672;2022-12-15T00:22:21;-5.50;99.90
30134;DHT22;16946;49.984;10.672;2022-12-15T00:23:11;-5.50;99.90
30134;DHT22;16946;49.984;10.672;2022-12-15T00:24:00;-5.50;99.90
30134;DHT22;16946;49.984;10.672;2022-12-15T00:24:49;-5.60;99.90
30134;DHT22;16946;49.984;10.672;2022-12-15T00:25:39;-5.70;99.90
30134;DHT22;16946;49.984;10.672;2022-12-15T00:26:28;-5.80;99.90
30134;DHT22;16946;49.984;10.672;2022-12-15T00:27:17;-5.80;99.90
30134;DHT22;16946;49.984;10.672;2022-12-15T00:28:07;-5.90;99.90
30134;DHT22;16946;49.984;10.672;2022-12-15T00:28:56;-5.90;99.90
30134;DHT22;16946;49.984;10.672;2022-12-15T00:29:45;-5.90;99.90
30134;DHT22;16946;49.984;10.672;2022-12-15T00:30:34;-5.90;99.90
30134;DHT22;16946;49.984;10.672;2022-12-15T00:31:24;-5.90;99.90
30134;DHT22;16946;49.984;10.672;2022-12-15T00:32:13;-5.90;99.90
30134;DHT22;16946;49.984;10.672;2022-12-15T00:33:09;-5.90;99.90
30134;DHT22;16946;49.984;10.672;2022-12-15T00:33:59;-5.90;99.90
30134;DHT22;16946;49.984;10.672;2022-12-15T00:34:48;-5.90;99.90
30134;DHT22;16946;49.984;10.672;2022-12-15T00:35:37;-6.00;99.90
30134;DHT22;16946;49.984;10.672;2022-12-15T00:36:27;-5.90;99.90
30134;DHT22;16946;49.984;10.672;2022-12-15T00:37:16;-5.90;99.90
30134;DHT22;16946;49.984;10.672;2022-12-15T00:38:11;-5.90;99.90
30134;DHT22;16946;49.984;10.672;2022-12-15T00:39:01;-5.90;99.90
30134;DHT22;16946;49.984;10.672;2022-12-15T00:39:31;-5.90;99.90
30134;DHT22;16946;49.984;10.672;2022-12-15T00:40:02;-5.80;99.90
30134;DHT22;16946;49.984;10.672;2022-12-15T00:40:34;-5.90;99.90
30134;DHT22;16946;49.984;10.672;2022-12-15T00:41:05;-5.80;99.90
30134;DHT22;16946;49.984;10.672;2022-12-15T00:41:35;-5.80;99.90
30134;DHT22;16946;49.984;10.672;2022-12-15T00:42:07;-5.70;99.90
30134;DHT22;16946;49.984;10.672;2022-12-15T00:42:37;-5.70;99.90
30134;DHT22;16946;49.984;10.672;2022-12-15T00:43:08;-5.70;99.90
30134;DHT22;16946;49.984;10.672;2022-12-15T00:43:41;-5.80;99.90
30134;DHT22;16946;49.984;10.672;2022-12-15T00:44:12;-5.80;99.90
30134;DHT22;16946;49.984;10.672;2022-12-15T00:44:43;-5.80;99.90
30134;DHT22;16946;49.984;10.672;2022-12-15T00:45:13;-5.80;99.90
30134;DHT22;16946;49.984;10.672;2022-12-15T00:45:44;-5.90;99.90
30134;DHT22;16946;49.984;10.672;2022-12-15T00:46:33;-5.90;99.90
30134;DHT22;16946;49.984;10.672;2022-12-15T00:47:22;-6.00;99.90
30134;DHT22;16946;49.984;10.672;2022-12-15T00:47:53;-6.10;99.90
30134;DHT22;16946;49.984;10.672;2022-12-15T00:48:24;-6.10;99.90
30134;DHT22;16946;49.984;10.672;2022-12-15T00:48:54;-6.10;99.90
30134;DHT22;16946;49.984;10.672;2022-12-15T00:49:27;-6.20;99.90
30134;DHT22;16946;49.984;10.672;2022-12-15T00:50:17;-6.30;99.90
30134;DHT22;16946;49.984;10.672;2022-12-15T00:51:06;-6.30;99.90
30134;DHT22;16946;49.984;10.672;2022-12-15T00:51:36;-6.40;99.90
30134;DHT22;16946;49.984;10.672;2022-12-15T00:52:25;-6.40;99.90
30134;DHT22;16946;49.984;10.672;2022-12-15T00:53:14;-6.40;99.90
30134;DHT22;16946;49.984;10.672;2022-12-15T00:54:04;-6.40;99.90
30134;DHT22;16946;49.984;10.672;2022-12-15T00:54:53;-6.30;99.90
30134;DHT22;16946;49.984;10.672;2022-12-15T00:55:42;-6.30;99.90
30134;DHT22;16946;49.984;10.672;2022-12-15T00:56:32;-6.20;99.90
30134;DHT22;16946;49.984;10.672;2022-12-15T00:57:21;-6.10;99.90
30134;DHT22;16946;49.984;10.672;2022-12-15T00:58:10;-6.00;99.90
30134;DHT22;16946;49.984;10.672;2022-12-15T00:59:00;-5.90;99.90
30134;DHT22;16946;49.984;10.672;2022-12-15T00:59:49;-5.80;99.90
30134;DHT22;16946;49.984;10.672;2022-12-15T01:00:38;-5.80;99.90
30134;DHT22;16946;49.984;10.672;2022-12-15T01:01:28;-5.90;99.90
30134;DHT22;16946;49.984;10.672;2022-12-15T01:02:17;-6.00;99.90
30134;DHT22;16946;49.984;10.672;2022-12-15T01:03:19;-6.00;99.90
30134;DHT22;16946;49.984;10.672;2022-12-15T01:04:08;-6.00;99.90
30134;DHT22;16946;49.984;10.672;2022-12-15T01:04:57;-6.00;99.90
30134;DHT22;16946;49.984;10.672;2022-12-15T01:05:47;-6.00;99.90
30134;DHT22;16946;49.984;10.672;2022-12-15T01:06:36;-6.00;99.90
30134;DHT22;16946;49.984;10.672;2022-12-15T01:07:25;-6.00;99.90
30134;DHT22;16946;49.984;10.672;2022-12-15T01:08:14;-6.00;99.90
30134;DHT22;16946;49.984;10.672;2022-12-15T01:09:06;-5.90;99.90
30134;DHT22;16946;49.984;10.672;2022-12-15T01:09:55;-5.90;99.90
30134;DHT22;16946;49.984;10.672;2022-12-15T01:10:44;-5.90;99.90
30134;DHT22;16946;49.984;10.672;2022-12-15T01:11:33;-5.90;99.90
30134;DHT22;16946;49.984;10.672;2022-12-15T01:12:23;-6.00;99.90
30134;DHT22;16946;49.984;10.672;2022-12-15T01:13:12;-6.10;99.90
30134;DHT22;16946;49.984;10.672;2022-12-15T01:14:01;-6.20;99.90
30134;DHT22;16946;49.984;10.672;2022-12-15T01:14:50;-6.20;99.90
30134;DHT22;16946;49.984;10.672;2022-12-15T01:15:39;-6.30;99.90
30134;DHT22;16946;49.984;10.672;2022-12-15T01:16:28;-6.30;99.90
30134;DHT22;16946;49.984;10.672;2022-12-15T01:17:18;-6.20;99.90
30134;DHT22;16946;49.984;10.672;2022-12-15T01:18:07;-6.20;99.90
30134;DHT22;16946;49.984;10.672;2022-12-15T01:18:57;-6.20;99.90
30134;DHT22;16946;49.984;10.672;2022-12-15T01:19:46;-6.30;99.90
30134;DHT22;16946;49.984;10.672;2022-12-15T01:20:35;-6.20;99.90
30134;DHT22;16946;49.984;10.672;2022-12-15T01:21:07;-6.10;99.90
30134;DHT22;16946;49.984;10.672;2022-12-15T01:21:38;-6.10;99.90
30134;DHT22;16946;49.984;10.672;2022-12-15T01:22:08;-6.10;99.90
30134;DHT22;16946;49.984;10.672;2022-12-15T01:22:39;-6.10;99.90
30134;DHT22;16946;49.984;10.672;2022-12-15T01:23:10;-6.10;99.90
30134;DHT22;16946;49.984;10.672;2022-12-15T01:23:41;-6.10;99.90
30134;DHT22;16946;49.984;10.672;2022-12-15T01:24:11;-6.00;99.90
30134;DHT22;16946;49.984;10.672;2022-12-15T01:24:42;-6.10;99.90
30134;DHT22;16946;49.984;10.672;2022-12-15T01:25:14;-6.10;99.90
30134;DHT22;16946;49.984;10.672;2022-12-15T01:25:46;-6.20;99.90
30134;DHT22;16946;49.984;10.672;2022-12-15T01:26:16;-6.20;99.90
30134;DHT22;16946;49.984;10.672;2022-12-15T01:26:46;-6.30;99.90
30134;DHT22;16946;49.984;10.672;2022-12-15T01:27:17;-6.30;99.90
30134;DHT22;16946;49.984;10.672;2022-12-15T01:27:49;-6.30;99.90
30134;DHT22;16946;49.984;10.672;2022-12-15T01:28:20;-6.30;99.90
30134;DHT22;16946;49.984;10.672;2022-12-15T01:28:51;-6.30;99.90
30134;DHT22;16946;49.984;10.672;2022-12-15T01:29:22;-6.30;99.90
30134;DHT22;16946;49.984;10.672;2022-12-15T01:29:52;-6.30;99.90
30134;DHT22;16946;49.984;10.672;2022-12-15T01:30:25;-6.30;99.90
30134;DHT22;16946;49.984;10.672;2022-12-15T01:30:56;-6.30;99.90
30134;DHT22;16946;49.984;10.672;2022-12-15T01:31:26;-6.30;99.90
30134;DHT22;16946;49.984;10.672;2022-12-15T01:31:57;-6.30;99.90
30134;DHT22;16946;49.984;10.672;2022-12-15T01:32:27;-6.20;99.90
30134;DHT22;16946;49.984;10.672;2022-12-15T01:32:58;-6.20;99.90
30134;DHT22;16946;49.984;10.672;2022-12-15T01:33:28;-6.20;99.90
30134;DHT22;16946;49.984;10.672;2022-12-15T01:33:59;-6.20;99.90
30134;DHT22;16946;49.984;10.672;2022-12-15T01:34:29;-6.10;99.90
30134;DHT22;16946;49.984;10.672;2022-12-15T01:35:00;-6.10;99.90
30134;DHT22;16946;49.984;10.672;2022-12-15T01:35:31;-6.00;99.90
30134;DHT22;16946;49.984;10.672;2022-12-15T01:36:01;-6.00;99.90
30134;DHT22;16946;49.984;10.672;2022-12-15T01:36:32;-5.90;99.90
30134;DHT22;16946;49.984;10.672;2022-12-15T01:37:02;-5.90;99.90
30134;DHT22;16946;49.984;10.672;2022-12-15T01:37:34;-5.80;99.90
30134;DHT22;16946;49.984;10.672;2022-12-15T01:38:04;-5.80;99.90
30134;DHT22;16946;49.984;10.672;2022-12-15T01:38:35;-5.80;99.90
30134;DHT22;16946;49.984;10.672;2022-12-15T01:39:05;-5.70;99.90
30134;DHT22;16946;49.984;10.672;2022-12-15T01:39:36;-5.60;99.90
30134;DHT22;16946;49.984;10.672;2022-12-15T01:40:25;-5.60;99.90
30134;DHT22;16946;49.984;10.672;2022-12-15T01:41:14;-5.50;99.90
30134;DHT22;16946;49.984;10.672;2022-12-15T01:41:45;-5.50;99.90
30134;DHT22;16946;49.984;10.672;2022-12-15T01:42:16;-5.50;99.90
30134;DHT22;16946;49.984;10.672;2022-12-15T01:42:46;-5.50;99.90
30134;DHT22;16946;49.984;10.672;2022-12-15T01:43:20;-5.50;99.90
30134;DHT22;16946;49.984;10.672;2022-12-15T01:43:52;-5.50;99.90
30134;DHT22;16946;49.984;10.672;2022-12-15T01:44:23;-5.50;99.90
30134;DHT22;16946;49.984;10.672;2022-12-15T01:46:03;-5.60;99.90
30134;DHT22;16946;49.984;10.672;2022-12-15T01:46:34;-5.60;99.90
30134;DHT22;16946;49.984;10.672;2022-12-15T01:47:08;-5.60;99.90
30134;DHT22;16946;49.984;10.672;2022-12-15T01:47:41;-5.60;99.90
30134;DHT22;16946;49.984;10.672;2022-12-15T01:48:14;-5.60;99.90
30134;DHT22;16946;49.984;10.672;2022-12-15T01:48:59;-5.60;99.90
30134;DHT22;16946;49.984;10.672;2022-12-15T01:49:34;-5.60;99.90
30134;DHT22;16946;49.984;10.672;2022-12-15T01:50:08;-5.60;99.90
30134;DHT22;16946;49.984;10.672;2022-12-15T01:50:46;-5.60;99.90
30134;DHT22;16946;49.984;10.672;2022-12-15T01:51:31;-5.60;99.90
30134;DHT22;16946;49.984;10.672;2022-12-15T01:52:05;-5.60;99.90
30134;DHT22;16946;49.984;10.672;2022-12-15T01:52:38;-5.50;99.90
30134;DHT22;16946;49.984;10.672;2022-12-15T01:53:09;-5.50;99.90
30134;DHT22;16946;49.984;10.672;2022-12-15T01:53:54;-5.50;99.90
30134;DHT22;16946;49.984;10.672;2022-12-15T01:55:03;-5.40;99.90
30134;DHT22;16946;49.984;10.672;2022-12-15T01:55:35;-5.40;99.90
30134;DHT22;16946;49.984;10.672;2022-12-15T01:56:08;-5.30;99.90
30134;DHT22;16946;49.984;10.672;2022-12-15T01:56:46;-5.30;99.90
30134;DHT22;16946;49.984;10.672;2022-12-15T01:57:23;-5.20;99.90
30134;DHT22;16946;49.984;10.672;2022-12-15T01:58:03;-5.20;99.90
30134;DHT22;16946;49.984;10.672;2022-12-15T01:58:35;-5.10;99.90
30134;DHT22;16946;49.984;10.672;2022-12-15T01:59:10;-5.10;99.90
30134;DHT22;16946;49.984;10.672;2022-12-15T01:59:44;-5.10;99.90
30134;DHT22;16946;49.984;10.672;2022-12-15T02:00:18;-5.00;99.90
30134;DHT22;16946;49.984;10.672;2022-12-15T02:00:48;-5.10;99.90
30134;DHT22;16946;49.984;10.672;2022-12-15T02:01:19;-5.10;99.90
30134;DHT22;16946;49.984;10.672;2022-12-15T02:01:49;-5.00;99.90
30134;DHT22;16946;49.984;10.672;2022-12-15T02:02:23;-5.10;99.90
30134;DHT22;16946;49.984;10.672;2022-12-15T02:02:56;-5.10;99.90
30134;DHT22;16946;49.984;10.672;2022-12-15T02:03:28;-5.10;99.90
30134;DHT22;16946;49.984;10.672;2022-12-15T02:04:00;-5.10;99.90
30134;DHT22;16946;49.984;10.672;2022-12-15T02:04:32;-5.20;99.90
30134;DHT22;16946;49.984;10.672;2022-12-15T02:05:04;-5.20;99.90
30134;DHT22;16946;49.984;10.672;2022-12-15T02:05:35;-5.20;99.90
30134;DHT22;16946;49.984;10.672;2022-12-15T02:06:07;-5.20;99.90
30134;DHT22;16946;49.984;10.672;2022-12-15T02:06:38;-5.40;99.90
30134;DHT22;16946;49.984;10.672;2022-12-15T02:07:12;-5.50;99.90
30134;DHT22;16946;49.984;10.672;2022-12-15T02:07:43;-5.50;99.90
30134;DHT22;16946;49.984;10.672;2022-12-15T02:08:13;-5.50;99.90
30134;DHT22;16946;49.984;10.672;2022-12-15T02:08:45;-5.60;99.90
30134;DHT22;16946;49.984;10.672;2022-12-15T02:09:18;-5.50;99.90
30134;DHT22;16946;49.984;10.672;2022-12-15T02:09:52;-5.60;99.90
30134;DHT22;16946;49.984;10.672;2022-12-15T02:10:33;-5.50;99.90
30134;DHT22;16946;49.984;10.672;2022-12-15T02:13:10;-5.50;99.90
30134;DHT22;16946;49.984;10.672;2022-12-15T02:14:00;-5.40;99.90
30134;DHT22;16946;49.984;10.672;2022-12-15T02:16:27;-5.40;99.90
30134;DHT22;16946;49.984;10.672;2022-12-15T02:20:16;-5.30;99.90
30134;DHT22;16946;49.984;10.672;2022-12-15T02:21:01;-5.30;99.90
30134;DHT22;16946;49.984;10.672;2022-12-15T02:22:50;-5.20;99.90
30134;DHT22;16946;49.984;10.672;2022-12-15T02:24:45;-5.20;99.90
30134;DHT22;16946;49.984;10.672;2022-12-15T02:25:30;-5.10;99.90
30134;DHT22;16946;49.984;10.672;2022-12-15T02:26:35;-5.10;99.90
30134;DHT22;16946;49.984;10.672;2022-12-15T02:28:11;-5.10;99.90
30134;DHT22;16946;49.984;10.672;2022-12-15T02:28:50;-5.20;99.90
30134;DHT22;16946;49.984;10.672;2022-12-15T02:31:05;-5.60;99.90
30134;DHT22;16946;49.984;10.672;2022-12-15T02:32:02;-5.70;99.90
30134;DHT22;16946;49.984;10.672;2022-12-15T02:32:44;-5.80;99.90
30134;DHT22;16946;49.984;10.672;2022-12-15T02:33:24;-5.80;99.90
30134;DHT22;16946;49.984;10.672;2022-12-15T02:34:02;-5.80;99.90
30134;DHT22;16946;49.984;10.672;2022-12-15T02:34:56;-5.80;99.90
30134;DHT22;16946;49.984;10.672;2022-12-15T02:35:46;-5.90;99.90
30134;DHT22;16946;49.984;10.672;2022-12-15T02:36:26;-5.90;99.90
30134;DHT22;16946;49.984;10.672;2022-12-15T02:37:05;-5.80;99.90
30134;DHT22;16946;49.984;10.672;2022-12-15T02:37:39;-5.80;99.90
30134;DHT22;16946;49.984;10.672;2022-12-15T02:38:11;-5.80;99.90
30134;DHT22;16946;49.984;10.672;2022-12-15T02:38:41;-5.80;99.90
30134;DHT22;16946;49.984;10.672;2022-12-15T02:39:12;-5.70;99.90
30134;DHT22;16946;49.984;10.672;2022-12-15T02:39:43;-5.70;99.90
30134;DHT22;16946;49.984;10.672;2022-12-15T02:40:13;-5.60;99.90
30134;DHT22;16946;49.984;10.672;2022-12-15T02:40:44;-5.70;99.90
30134;DHT22;16946;49.984;10.672;2022-12-15T02:41:35;-5.70;99.90
30134;DHT22;16946;49.984;10.672;2022-12-15T02:42:05;-5.60;99.90
30134;DHT22;16946;49.984;10.672;2022-12-15T02:42:42;-5.70;99.90
30134;DHT22;16946;49.984;10.672;2022-12-15T02:43:14;-5.70;99.90
30134;DHT22;16946;49.984;10.672;2022-12-15T02:43:45;-5.60;99.90
30134;DHT22;16946;49.984;10.672;2022-12-15T02:44:22;-5.60;99.90
30134;DHT22;16946;49.984;10.672;2022-12-15T02:45:10;-5.70;99.90
30134;DHT22;16946;49.984;10.672;2022-12-15T02:45:57;-5.70;99.90
30134;DHT22;16946;49.984;10.672;2022-12-15T02:46:34;-5.80;99.90
30134;DHT22;16946;49.984;10.672;2022-12-15T02:53:18;-5.80;99.90
30134;DHT22;16946;49.984;10.672;2022-12-15T02:54:02;-5.70;99.90
30134;DHT22;16946;49.984;10.672;2022-12-15T02:54:48;-5.70;99.90
30134;DHT22;16946;49.984;10.672;2022-12-15T02:56:23;-5.50;99.90
30134;DHT22;16946;49.984;10.672;2022-12-15T02:57:04;-5.50;99.90
30134;DHT22;16946;49.984;10.672;2022-12-15T02:58:57;-5.40;99.90
30134;DHT22;16946;49.984;10.672;2022-12-15T02:59:40;-5.40;99.90
30134;DHT22;16946;49.984;10.672;2022-12-15T03:00:13;-5.40;99.90
30134;DHT22;16946;49.984;10.672;2022-12-15T03:00:52;-5.30;99.90
30134;DHT22;16946;49.984;10.672;2022-12-15T03:01:32;-5.30;99.90
30134;DHT22;16946;49.984;10.672;2022-12-15T03:02:07;-5.40;99.90
30134;DHT22;16946;49.984;10.672;2022-12-15T03:02:43;-5.40;99.90
30134;DHT22;16946;49.984;10.672;2022-12-15T03:03:15;-5.30;99.90
30134;DHT22;16946;49.984;10.672;2022-12-15T03:03:49;-5.40;99.90
30134;DHT22;16946;49.984;10.672;2022-12-15T03:04:20;-5.40;99.90
30134;DHT22;16946;49.984;10.672;2022-12-15T03:04:52;-5.40;99.90
30134;DHT22;16946;49.984;10.672;2022-12-15T03:05:23;-5.40;99.90
30134;DHT22;16946;49.984;10.672;2022-12-15T03:05:55;-5.40;99.90
30134;DHT22;16946;49.984;10.672;2022-12-15T03:06:27;-5.30;99.90
30134;DHT22;16946;49.984;10.672;2022-12-15T03:07:01;-5.30;99.90
30134;DHT22;16946;49.984;10.672;2022-12-15T03:07:33;-5.30;99.90
30134;DHT22;16946;49.984;10.672;2022-12-15T03:08:03;-5.30;99.90
30134;DHT22;16946;49.984;10.672;2022-12-15T03:08:34;-5.30;99.90
30134;DHT22;16946;49.984;10.672;2022-12-15T03:09:05;-5.40;99.90
30134;DHT22;16946;49.984;10.672;2022-12-15T03:09:35;-5.40;99.90
30134;DHT22;16946;49.984;10.672;2022-12-15T03:10:07;-5.30;99.90
30134;DHT22;16946;49.984;10.672;2022-12-15T03:10:38;-5.40;99.90
30134;DHT22;16946;49.984;10.672;2022-12-15T03:11:08;-5.40;99.90
30134;DHT22;16946;49.984;10.672;2022-12-15T03:11:39;-5.40;99.90
30134;DHT22;16946;49.984;10.672;2022-12-15T03:12:10;-5.50;99.90
30134;DHT22;16946;49.984;10.672;2022-12-15T03:12:40;-5.50;99.90
30134;DHT22;16946;49.984;10.672;2022-12-15T03:13:11;-5.50;99.90
30134;DHT22;16946;49.984;10.672;2022-12-15T03:13:42;-5.50;99.90
30134;DHT22;16946;49.984;10.672;2022-12-15T03:14:12;-5.50;99.90
30134;DHT22;16946;49.984;10.672;2022-12-15T03:14:43;-5.60;99.90
30134;DHT22;16946;49.984;10.672;2022-12-15T03:15:13;-5.60;99.90
30134;DHT22;16946;49.984;10.672;2022-12-15T03:15:44;-5.60;99.90
30134;DHT22;16946;49.984;10.672;2022-12-15T03:16:14;-5.70;99.90
30134;DHT22;16946;49.984;10.672;2022-12-15T03:16:45;-5.70;99.90
30134;DHT22;16946;49.984;10.672;2022-12-15T03:17:16;-5.70;99.90
30134;DHT22;16946;49.984;10.672;2022-12-15T03:17:46;-5.70;99.90
30134;DHT22;16946;49.984;10.672;2022-12-15T03:18:17;-5.80;99.90
30134;DHT22;16946;49.984;10.672;2022-12-15T03:18:47;-5.80;99.90
30134;DHT22;16946;49.984;10.672;2022-12-15T03:19:18;-5.80;99.90
30134;DHT22;16946;49.984;10.672;2022-12-15T03:19:49;-5.80;99.90
30134;DHT22;16946;49.984;10.672;2022-12-15T03:20:20;-5.80;99.90
30134;DHT22;16946;49.984;10.672;2022-12-15T03:20:50;-5.90;99.90
30134;DHT22;16946;49.984;10.672;2022-12-15T03:21:21;-5.90;99.90
30134;DHT22;16946;49.984;10.672;2022-12-15T03:21:51;-5.90;99.90
30134;DHT22;16946;49.984;10.672;2022-12-15T03:22:22;-5.90;99.90
30134;DHT22;16946;49.984;10.672;2022-12-15T03:22:53;-5.90;99.90
30134;DHT22;16946;49.984;10.672;2022-12-15T03:23:23;-5.90;99.90
30134;DHT22;16946;49.984;10.672;2022-12-15T03:23:54;-5.90;99.90
30134;DHT22;16946;49.984;10.672;2022-12-15T03:24:24;-5.90;99.90
30134;DHT22;16946;49.984;10.672;2022-12-15T03:24:55;-5.80;99.90
30134;DHT22;16946;49.984;10.672;2022-12-15T03:25:25;-5.80;99.90
30134;DHT22;16946;49.984;10.672;2022-12-15T03:25:56;-5.70;99.90
30134;DHT22;16946;49.984;10.672;2022-12-15T03:26:26;-5.70;99.90
30134;DHT22;16946;49.984;10.672;2022-12-15T03:26:57;-5.60;99.90
30134;DHT22;16946;49.984;10.672;2022-12-15T03:27:27;-5.50;99.90
30134;DHT22;16946;49.984;10.672;2022-12-15T03:27:58;-5.50;99.90
30134;DHT22;16946;49.984;10.672;2022-12-15T03:28:30;-5.40;99.90
30134;DHT22;16946;49.984;10.672;2022-12-15T03:29:00;-5.30;99.90
30134;DHT22;16946;49.984;10.672;2022-12-15T03:29:31;-5.30;99.90
30134;DHT22;16946;49.984;10.672;2022-12-15T03:30:01;-5.20;99.90
30134;DHT22;16946;49.984;10.672;2022-12-15T03:30:32;-5.20;99.90
30134;DHT22;16946;49.984;10.672;2022-12-15T03:31:03;-5.20;99.90
30134;DHT22;16946;49.984;10.672;2022-12-15T03:31:34;-5.30;99.90
30134;DHT22;16946;49.984;10.672;2022-12-15T03:32:05;-5.40;99.90
30134;DHT22;16946;49.984;10.672;2022-12-15T03:32:35;-5.50;99.90
30134;DHT22;16946;49.984;10.672;2022-12-15T03:33:06;-5.60;99.90
30134;DHT22;16946;49.984;10.672;2022-12-15T03:33:37;-5.70;99.90
30134;DHT22;16946;49.984;10.672;2022-12-15T03:34:08;-5.80;99.90
30134;DHT22;16946;49.984;10.672;2022-12-15T03:34:39;-5.90;99.90
30134;DHT22;16946;49.984;10.672;2022-12-15T03:35:09;-6.00;99.90
30134;DHT22;16946;49.984;10.672;2022-12-15T03:35:42;-6.00;99.90
30134;DHT22;16946;49.984;10.672;2022-12-15T03:36:12;-6.00;99.90
30134;DHT22;16946;49.984;10.672;2022-12-15T03:36:43;-6.10;99.90
30134;DHT22;16946;49.984;10.672;2022-12-15T03:37:13;-6.10;99.90
30134;DHT22;16946;49.984;10.672;2022-12-15T03:37:44;-6.10;99.90
30134;DHT22;16946;49.984;10.672;2022-12-15T03:38:14;-6.10;99.90
30134;DHT22;16946;49.984;10.672;2022-12-15T03:38:45;-6.10;99.90
30134;DHT22;16946;49.984;10.672;2022-12-15T03:39:16;-6.10;99.90
30134;DHT22;16946;49.984;10.672;2022-12-15T03:39:46;-6.10;99.90
30134;DHT22;16946;49.984;10.672;2022-12-15T03:40:17;-6.10;99.90
30134;DHT22;16946;49.984;10.672;2022-12-15T03:40:47;-6.10;99.90
30134;DHT22;16946;49.984;10.672;2022-12-15T03:41:18;-6.00;99.90
30134;DHT22;16946;49.984;10.672;2022-12-15T03:41:49;-6.10;99.90
30134;DHT22;16946;49.984;10.672;2022-12-15T03:42:19;-6.00;99.90
30134;DHT22;16946;49.984;10.672;2022-12-15T03:43:10;-5.90;99.90
30134;DHT22;16946;49.984;10.672;2022-12-15T03:43:40;-5.90;99.90
30134;DHT22;16946;49.984;10.672;2022-12-15T03:44:11;-5.90;99.90
30134;DHT22;16946;49.984;10.672;2022-12-15T03:44:41;-5.80;99.90
30134;DHT22;16946;49.984;10.672;2022-12-15T03:45:12;-5.80;99.90
30134;DHT22;16946;49.984;10.672;2022-12-15T03:45:43;-5.80;99.90
30134;DHT22;16946;49.984;10.672;2022-12-15T03:46:13;-5.80;99.90
30134;DHT22;16946;49.984;10.672;2022-12-15T03:46:44;-5.80;99.90
30134;DHT22;16946;49.984;10.672;2022-12-15T03:47:14;-5.70;99.90
30134;DHT22;16946;49.984;10.672;2022-12-15T03:47:45;-5.70;99.90
30134;DHT22;16946;49.984;10.672;2022-12-15T03:48:16;-5.70;99.90
30134;DHT22;16946;49.984;10.672;2022-12-15T03:48:47;-5.70;99.90
30134;DHT22;16946;49.984;10.672;2022-12-15T03:49:17;-5.70;99.90
30134;DHT22;16946;49.984;10.672;2022-12-15T03:49:48;-5.70;99.90
30134;DHT22;16946;49.984;10.672;2022-12-15T03:50:24;-5.70;99.90
30134;DHT22;16946;49.984;10.672;2022-12-15T03:50:55;-5.70;99.90
30134;DHT22;16946;49.984;10.672;2022-12-15T03:51:25;-5.70;99.90
30134;DHT22;16946;49.984;10.672;2022-12-15T03:51:56;-5.70;99.90
30134;DHT22;16946;49.984;10.672;2022-12-15T03:52:26;-5.60;99.90
30134;DHT22;16946;49.984;10.672;2022-12-15T03:52:59;-5.60;99.90
30134;DHT22;16946;49.984;10.672;2022-12-15T03:53:30;-5.60;99.90
30134;DHT22;16946;49.984;10.672;2022-12-15T03:54:01;-5.60;99.90
30134;DHT22;16946;49.984;10.672;2022-12-15T03:54:31;-5.60;99.90
30134;DHT22;16946;49.984;10.672;2022-12-15T03:55:03;-5.60;99.90
30134;DHT22;16946;49.984;10.672;2022-12-15T03:55:34;-5.50;99.90
30134;DHT22;16946;49.984;10.672;2022-12-15T03:56:04;-5.60;99.90
30134;DHT22;16946;49.984;10.672;2022-12-15T03:56:35;-5.50;99.90
30134;DHT22;16946;49.984;10.672;2022-12-15T03:57:06;-5.50;99.90
30134;DHT22;16946;49.984;10.672;2022-12-15T03:57:36;-5.50;99.90
30134;DHT22;16946;49.984;10.672;2022-12-15T03:58:07;-5.50;99.90
30134;DHT22;16946;49.984;10.672;2022-12-15T03:58:38;-5.60;99.90
30134;DHT22;16946;49.984;10.672;2022-12-15T03:59:08;-5.70;99.90
30134;DHT22;16946;49.984;10.672;2022-12-15T03:59:39;-5.70;99.90
30134;DHT22;16946;49.984;10.672;2022-12-15T04:00:11;-5.70;99.90
30134;DHT22;16946;49.984;10.672;2022-12-15T04:00:44;-5.90;99.90
30134;DHT22;16946;49.984;10.672;2022-12-15T04:01:27;-5.90;99.90
30134;DHT22;16946;49.984;10.672;2022-12-15T04:01:58;-5.90;99.90
30134;DHT22;16946;49.984;10.672;2022-12-15T04:02:28;-6.00;99.90
30134;DHT22;16946;49.984;10.672;2022-12-15T04:02:59;-6.00;99.90
30134;DHT22;16946;49.984;10.672;2022-12-15T04:03:30;-6.00;99.90
30134;DHT22;16946;49.984;10.672;2022-12-15T04:04:01;-5.90;99.90
30134;DHT22;16946;49.984;10.672;2022-12-15T04:04:32;-6.00;99.90
30134;DHT22;16946;49.984;10.672;2022-12-15T04:05:03;-6.00;99.90
30134;DHT22;16946;49.984;10.672;2022-12-15T04:05:34;-6.00;99.90
30134;DHT22;16946;49.984;10.672;2022-12-15T04:06:05;-5.90;99.90
30134;DHT22;16946;49.984;10.672;2022-12-15T04:06:35;-5.90;99.90
30134;DHT22;16946;49.984;10.672;2022-12-15T04:07:06;-5.90;99.90
30134;DHT22;16946;49.984;10.672;2022-12-15T04:07:36;-5.90;99.90
30134;DHT22;16946;49.984;10.672;2022-12-15T04:08:07;-5.80;99.90
30134;DHT22;16946;49.984;10.672;2022-12-15T04:08:37;-5.80;99.90
30134;DHT22;16946;49.984;10.672;2022-12-15T04:09:08;-5.80;99.90
30134;DHT22;16946;49.984;10.672;2022-12-15T04:09:39;-5.80;99.90
30134;DHT22;16946;49.984;10.672;2022-12-15T04:10:10;-5.80;99.90
30134;DHT22;16946;49.984;10.672;2022-12-15T04:10:41;-5.80;99.90
30134;DHT22;16946;49.984;10.672;2022-12-15T04:11:12;-5.80;99.90